Time;durP1;ratioP1;P1;durP2;ratioP2;P2;SDS_P1;SDS_P2;PMS_P1;PMS_P2;Temp;Humidity;BMP_temperature;BMP_pressure;BME280_temperature;BME280_humidity;BME280_pressure;Samples;Min_cycle;Max_cycle;Signal;HPM_P1;HPM_P2
2021/11/17 02:27:05;;;;;;;;;;;22.10;38.90;;;;;;462549;258;1277;-45
2021/11/17 02:29:04;;;;;;;;;;;22.10;38.90;;;;;;462472;258;2211;-46
2021/11/17 02:31:06;;;;;;;;;;;22.10;38.90;;;;;;462567;253;1164;-45
2021/11/17 02:33:09;;;;;;;;;;;22.10;38.90;;;;;;462568;258;1232;-45
2021/11/17 02:35:09;;;;;;;;;;;22.10;38.80;;;;;;462615;257;1426;-46
2021/11/17 02:37:10;;;;;;;;;;;22.10;38.90;;;;;;462460;257;1979;-45
2021/11/17 02:39:12;;;;;;;;;;;22.10;38.80;;;;;;462663;258;1248;-45
2021/11/17 02:41:13;;;;;;;;;;;22.10;38.80;;;;;;462476;258;1392;-45
2021/11/17 02:43:15;;;;;;;;;;;22.10;38.80;;;;;;462575;257;1222;-45
2021/11/17 02:45:16;;;;;;;;;;;22.10;38.80;;;;;;462886;258;1118;-45
2021/11/17 02:47:17;;;;;;;;;;;22.20;38.80;;;;;;462528;254;1475;-45
2021/11/17 02:49:19;;;;;;;;;;;22.20;38.80;;;;;;462618;257;2149;-46
2021/11/17 02:51:20;;;;;;;;;;;22.20;38.80;;;;;;462727;257;1091;-45
2021/11/17 02:53:22;;;;;;;;;;;22.20;38.80;;;;;;462728;257;1202;-45
2021/11/17 02:55:23;;;;;;;;;;;22.20;38.80;;;;;;462863;257;2341;-45
2021/11/17 02:57:24;;;;;;;;;;;22.20;38.80;;;;;;462459;258;1126;-45
2021/11/17 02:59:26;;;;;;;;;;;22.20;38.80;;;;;;462605;257;1380;-45
2021/11/17 03:03:30;;;;;;;;;;;22.20;38.70;;;;;;478893;247;3453;-47
2021/11/17 03:05:31;;;;;;;;;;;22.20;38.70;;;;;;481071;247;1034;-46
2021/11/17 03:07:33;;;;;;;;;;;22.30;38.70;;;;;;481275;247;1329;-46
2021/11/17 03:09:34;;;;;;;;;;;22.20;38.70;;;;;;481093;247;2127;-46
2021/11/17 03:11:35;;;;;;;;;;;22.20;38.60;;;;;;481100;247;1376;-46
2021/11/17 03:13:37;;;;;;;;;;;22.30;38.70;;;;;;481030;247;1320;-46
2021/11/17 03:15:38;;;;;;;;;;;22.20;38.70;;;;;;481056;247;1121;-46
2021/11/17 03:17:39;;;;;;;;;;;22.30;38.70;;;;;;481283;247;1347;-47
2021/11/17 03:19:41;;;;;;;;;;;22.30;38.70;;;;;;481182;247;1089;-46
2021/11/17 03:21:42;;;;;;;;;;;22.30;38.70;;;;;;481530;247;1283;-46
2021/11/17 03:23:43;;;;;;;;;;;22.30;38.70;;;;;;481129;247;1301;-47
2021/11/17 03:25:45;;;;;;;;;;;22.30;38.70;;;;;;481119;247;1305;-46
2021/11/17 03:27:46;;;;;;;;;;;22.30;38.70;;;;;;481211;247;1271;-46
2021/11/17 03:29:47;;;;;;;;;;;22.30;38.70;;;;;;481556;247;2126;-47
2021/11/17 03:31:49;;;;;;;;;;;22.30;38.60;;;;;;481250;247;1198;-47
2021/11/17 03:33:50;;;;;;;;;;;22.30;38.60;;;;;;481088;247;1249;-46
2021/11/17 03:35:51;;;;;;;;;;;22.30;38.70;;;;;;481162;247;1024;-47
2021/11/17 03:37:52;;;;;;;;;;;22.30;38.70;;;;;;481114;247;1206;-46
2021/11/17 03:39:54;;;;;;;;;;;22.30;38.70;;;;;;481135;247;1250;-46
2021/11/17 03:41:55;;;;;;;;;;;22.30;38.70;;;;;;481095;247;1226;-46
2021/11/17 03:43:56;;;;;;;;;;;22.30;38.60;;;;;;481583;247;1026;-46
2021/11/17 03:45:58;;;;;;;;;;;22.30;38.60;;;;;;481540;247;1267;-46
2021/11/17 03:47:59;;;;;;;;;;;22.40;38.60;;;;;;481341;247;1329;-46
2021/11/17 03:50:00;;;;;;;;;;;22.30;38.60;;;;;;481236;247;2131;-46
2021/11/17 03:52:02;;;;;;;;;;;22.30;38.60;;;;;;481056;247;1628;-46
2021/11/17 03:54:03;;;;;;;;;;;22.40;38.60;;;;;;481541;247;1233;-46
2021/11/17 03:56:04;;;;;;;;;;;22.40;38.60;;;;;;481085;247;1312;-47
2021/11/17 03:58:06;;;;;;;;;;;22.40;38.60;;;;;;481096;247;1327;-47
2021/11/17 04:00:07;;;;;;;;;;;22.40;38.60;;;;;;481445;247;1035;-47
2021/11/17 04:02:08;;;;;;;;;;;22.40;38.60;;;;;;481032;247;1207;-46
2021/11/17 04:04:10;;;;;;;;;;;22.40;38.60;;;;;;481222;247;1377;-47
2021/11/17 04:06:11;;;;;;;;;;;22.40;38.60;;;;;;481095;247;1114;-47
2021/11/17 04:08:12;;;;;;;;;;;22.40;38.60;;;;;;481565;247;1151;-47
2021/11/17 04:10:14;;;;;;;;;;;22.40;38.60;;;;;;481125;247;2177;-47
2021/11/17 04:12:15;;;;;;;;;;;22.40;38.60;;;;;;481346;247;1088;-46
2021/11/17 04:14:17;;;;;;;;;;;22.40;38.60;;;;;;481075;247;1143;-46
2021/11/17 04:16:18;;;;;;;;;;;22.40;38.60;;;;;;481197;247;1234;-46
2021/11/17 04:18:19;;;;;;;;;;;22.40;38.60;;;;;;481121;247;1336;-46
2021/11/17 04:20:21;;;;;;;;;;;22.40;38.60;;;;;;481578;247;1022;-47
2021/11/17 04:22:22;;;;;;;;;;;22.40;38.60;;;;;;481074;247;1230;-47
2021/11/17 04:24:23;;;;;;;;;;;22.40;38.50;;;;;;481482;247;1116;-47
2021/11/17 04:26:25;;;;;;;;;;;22.50;38.50;;;;;;481491;247;1213;-47
2021/11/17 04:28:26;;;;;;;;;;;22.40;38.50;;;;;;481158;247;1223;-47
2021/11/17 04:30:27;;;;;;;;;;;22.40;38.50;;;;;;481369;247;2180;-47
2021/11/17 04:32:29;;;;;;;;;;;22.50;38.60;;;;;;481242;247;1281;-46
2021/11/17 04:34:30;;;;;;;;;;;22.40;38.50;;;;;;481136;247;1127;-46
2021/11/17 04:36:31;;;;;;;;;;;22.50;38.60;;;;;;481473;247;1042;-47
2021/11/17 04:38:33;;;;;;;;;;;22.50;38.50;;;;;;481264;247;1325;-46
2021/11/17 04:40:34;;;;;;;;;;;22.50;38.50;;;;;;481276;247;1056;-46
2021/11/17 04:42:35;;;;;;;;;;;22.50;38.60;;;;;;481064;247;1510;-46
2021/11/17 04:44:37;;;;;;;;;;;22.40;38.60;;;;;;481449;247;1047;-46
2021/11/17 04:46:38;;;;;;;;;;;22.50;38.60;;;;;;481093;247;1336;-47
2021/11/17 04:48:39;;;;;;;;;;;22.50;38.60;;;;;;481163;247;1382;-46
2021/11/17 04:50:41;;;;;;;;;;;22.50;38.50;;;;;;481286;247;2138;-47
2021/11/17 04:52:42;;;;;;;;;;;22.50;38.50;;;;;;481178;247;1332;-47
2021/11/17 04:54:43;;;;;;;;;;;22.50;38.50;;;;;;481057;247;1063;-47
2021/11/17 04:56:45;;;;;;;;;;;22.50;38.50;;;;;;481007;247;1246;-47
2021/11/17 04:58:46;;;;;;;;;;;22.50;38.50;;;;;;481154;247;1176;-47
2021/11/17 05:00:47;;;;;;;;;;;22.50;38.50;;;;;;481015;247;1152;-47
2021/11/17 05:02:48;;;;;;;;;;;22.50;38.50;;;;;;481162;247;1253;-47
2021/11/17 05:04:50;;;;;;;;;;;22.50;38.50;;;;;;481093;247;1204;-46
2021/11/17 05:06:51;;;;;;;;;;;22.50;38.50;;;;;;481297;247;1287;-46
2021/11/17 05:08:52;;;;;;;;;;;22.50;38.50;;;;;;481119;247;1087;-46
2021/11/17 05:10:54;;;;;;;;;;;22.50;38.40;;;;;;480585;247;2590;-46
2021/11/17 05:12:55;;;;;;;;;;;22.50;38.50;;;;;;481167;247;1174;-46
2021/11/17 05:14:56;;;;;;;;;;;22.50;38.40;;;;;;481281;247;1083;-47
2021/11/17 05:16:58;;;;;;;;;;;22.60;38.50;;;;;;479679;247;1215;-47
2021/11/17 05:18:59;;;;;;;;;;;22.60;38.50;;;;;;468500;253;1144;-47
2021/11/17 05:21:00;;;;;;;;;;;22.60;38.50;;;;;;478242;248;1228;-47
2021/11/17 05:23:02;;;;;;;;;;;22.50;38.40;;;;;;476695;248;1157;-46
2021/11/17 05:25:03;;;;;;;;;;;22.60;38.50;;;;;;478312;248;1183;-46
2021/11/17 05:27:04;;;;;;;;;;;22.60;38.50;;;;;;476710;250;1426;-47
2021/11/17 05:29:06;;;;;;;;;;;22.50;38.40;;;;;;477826;248;1095;-46
2021/11/17 05:31:07;;;;;;;;;;;22.50;38.40;;;;;;476483;250;2203;-46
2021/11/17 05:33:08;;;;;;;;;;;22.60;38.50;;;;;;478148;248;1252;-47
2021/11/17 05:35:10;;;;;;;;;;;22.60;38.40;;;;;;476590;250;1179;-46
2021/11/17 05:37:11;;;;;;;;;;;22.60;38.40;;;;;;477794;248;1315;-47
2021/11/17 05:39:13;;;;;;;;;;;22.60;38.40;;;;;;476831;249;1058;-47
2021/11/17 05:41:14;;;;;;;;;;;22.60;38.40;;;;;;478046;248;1826;-47
2021/11/17 05:43:15;;;;;;;;;;;22.60;38.40;;;;;;476735;248;1164;-46
2021/11/17 05:45:17;;;;;;;;;;;22.60;38.40;;;;;;477830;248;1095;-47
2021/11/17 05:47:18;;;;;;;;;;;22.60;38.40;;;;;;476407;250;1231;-46
2021/11/17 05:49:19;;;;;;;;;;;22.60;38.40;;;;;;477925;248;1206;-46
2021/11/17 05:51:20;;;;;;;;;;;22.60;38.40;;;;;;476869;249;2120;-46
2021/11/17 05:53:22;;;;;;;;;;;22.60;38.40;;;;;;477997;248;1069;-47
2021/11/17 05:55:23;;;;;;;;;;;22.60;38.40;;;;;;476512;249;1077;-46
2021/11/17 05:57:24;;;;;;;;;;;22.60;38.40;;;;;;477751;248;1254;-47
2021/11/17 05:59:26;;;;;;;;;;;22.60;38.30;;;;;;476456;248;1070;-47
2021/11/17 06:01:29;;;;;;;;;;;22.70;38.30;;;;;;477821;248;1208;-46
2021/11/17 06:03:30;;;;;;;;;;;22.70;38.40;;;;;;476592;249;1550;-47
2021/11/17 06:05:30;;;;;;;;;;;22.70;38.40;;;;;;477795;248;2089;-47
2021/11/17 06:07:32;;;;;;;;;;;22.70;38.40;;;;;;476618;249;1215;-46
2021/11/17 06:09:33;;;;;;;;;;;22.70;38.40;;;;;;478021;248;1176;-46
2021/11/17 06:11:35;;;;;;;;;;;22.70;38.40;;;;;;476780;248;2265;-46
2021/11/17 06:13:36;;;;;;;;;;;22.70;38.40;;;;;;477967;248;1167;-47
2021/11/17 06:15:37;;;;;;;;;;;22.70;38.40;;;;;;476561;250;1325;-46
2021/11/17 06:17:39;;;;;;;;;;;22.70;38.40;;;;;;477689;248;1162;-47
2021/11/17 06:19:40;;;;;;;;;;;22.70;38.40;;;;;;476686;248;1182;-47
2021/11/17 06:21:41;;;;;;;;;;;22.70;38.40;;;;;;477854;248;1360;-46
2021/11/17 06:23:45;;;;;;;;;;;22.70;38.40;;;;;;476528;249;1124;-47
2021/11/17 06:25:44;;;;;;;;;;;22.70;38.40;;;;;;477395;249;1638;-46
2021/11/17 06:27:45;;;;;;;;;;;22.70;38.40;;;;;;476407;248;1170;-47
2021/11/17 06:29:47;;;;;;;;;;;22.70;38.30;;;;;;463536;255;2132;-46
2021/11/17 06:31:48;;;;;;;;;;;22.70;38.40;;;;;;479152;248;1395;-46
2021/11/17 06:33:49;;;;;;;;;;;22.70;38.40;;;;;;467206;253;1229;-47
2021/11/17 06:35:50;;;;;;;;;;;22.70;38.40;;;;;;479177;248;1304;-47
2021/11/17 06:37:52;;;;;;;;;;;22.70;38.30;;;;;;467282;253;1220;-46
2021/11/17 06:39:53;;;;;;;;;;;22.70;38.30;;;;;;479282;248;1051;-46
2021/11/17 06:41:55;;;;;;;;;;;22.70;38.30;;;;;;467147;253;1225;-46
2021/11/17 06:43:56;;;;;;;;;;;22.70;38.30;;;;;;479212;248;1097;-46
2021/11/17 06:45:58;;;;;;;;;;;22.80;38.30;;;;;;467192;253;1408;-46
2021/11/17 06:47:59;;;;;;;;;;;22.80;38.30;;;;;;479194;248;1060;-47
2021/11/17 06:50:00;;;;;;;;;;;22.80;38.30;;;;;;467299;253;2185;-47
2021/11/17 06:52:01;;;;;;;;;;;22.80;38.30;;;;;;479192;248;1403;-47
2021/11/17 06:54:03;;;;;;;;;;;22.70;38.30;;;;;;477202;248;1086;-46
2021/11/17 06:56:04;;;;;;;;;;;22.80;38.40;;;;;;477251;248;1254;-47
2021/11/17 06:58:05;;;;;;;;;;;22.80;38.30;;;;;;477250;248;1213;-46
2021/11/17 07:00:07;;;;;;;;;;;22.70;38.30;;;;;;477319;248;1258;-46
2021/11/17 07:02:08;;;;;;;;;;;22.70;38.30;;;;;;477286;248;1276;-46
2021/11/17 07:04:09;;;;;;;;;;;22.70;38.30;;;;;;477216;249;1029;-46
2021/11/17 07:06:11;;;;;;;;;;;22.80;38.30;;;;;;477101;248;1262;-46
2021/11/17 07:08:12;;;;;;;;;;;22.80;38.30;;;;;;477315;248;1118;-46
2021/11/17 07:10:13;;;;;;;;;;;22.80;38.20;;;;;;477187;248;2203;-47
2021/11/17 07:12:15;;;;;;;;;;;22.80;38.20;;;;;;477141;249;1213;-46
2021/11/17 07:14:21;;;;;;;;;;;22.70;38.20;;;;;;477128;249;1141;-47
2021/11/17 07:16:18;;;;;;;;;;;22.80;38.20;;;;;;477007;248;2377;-46
2021/11/17 07:18:19;;;;;;;;;;;22.80;38.10;;;;;;477200;248;1198;-46
2021/11/17 07:20:20;;;;;;;;;;;22.80;38.10;;;;;;477268;248;1202;-47
2021/11/17 07:22:21;;;;;;;;;;;22.80;38.10;;;;;;477313;248;1365;-46
2021/11/17 07:24:23;;;;;;;;;;;22.80;38.10;;;;;;477236;248;1093;-46
2021/11/17 07:26:24;;;;;;;;;;;22.80;38.10;;;;;;477184;248;1384;-47
2021/11/17 07:28:25;;;;;;;;;;;22.80;38.10;;;;;;477147;248;1122;-47
2021/11/17 07:30:27;;;;;;;;;;;22.80;38.00;;;;;;477188;248;2183;-46
2021/11/17 07:32:28;;;;;;;;;;;22.80;38.10;;;;;;477071;248;1374;-46
2021/11/17 07:34:29;;;;;;;;;;;22.80;38.00;;;;;;477262;248;1219;-46
2021/11/17 07:36:31;;;;;;;;;;;22.80;38.00;;;;;;477137;248;1324;-47
2021/11/17 07:38:32;;;;;;;;;;;22.80;38.00;;;;;;477076;248;1211;-46
2021/11/17 07:40:33;;;;;;;;;;;22.80;38.00;;;;;;477202;248;1198;-46
2021/11/17 07:42:35;;;;;;;;;;;22.80;38.00;;;;;;477095;248;1307;-46
2021/11/17 07:44:36;;;;;;;;;;;22.80;38.00;;;;;;477140;248;1187;-47
2021/11/17 07:46:37;;;;;;;;;;;22.80;38.00;;;;;;476976;248;1123;-46
2021/11/17 07:48:39;;;;;;;;;;;22.80;38.10;;;;;;476961;248;1326;-46
2021/11/17 07:50:40;;;;;;;;;;;22.80;38.00;;;;;;476920;248;2196;-46
2021/11/17 07:52:41;;;;;;;;;;;22.80;38.00;;;;;;477017;248;1080;-46
2021/11/17 07:54:43;;;;;;;;;;;22.80;38.00;;;;;;477074;248;1075;-47
2021/11/17 07:56:44;;;;;;;;;;;22.80;38.00;;;;;;477025;250;1504;-47
2021/11/17 07:58:46;;;;;;;;;;;22.80;38.00;;;;;;477223;249;1119;-47
2021/11/17 08:00:48;;;;;;;;;;;22.80;38.00;;;;;;476964;248;1192;-47
2021/11/17 08:02:49;;;;;;;;;;;22.80;37.90;;;;;;477014;249;1077;-46
2021/11/17 08:04:50;;;;;;;;;;;22.80;37.90;;;;;;476953;248;1090;-46
2021/11/17 08:06:52;;;;;;;;;;;22.80;37.90;;;;;;476923;248;1221;-46
2021/11/17 08:08:53;;;;;;;;;;;22.80;38.00;;;;;;476901;248;1091;-47
2021/11/17 08:10:54;;;;;;;;;;;22.70;38.10;;;;;;477033;248;2218;-46
2021/11/17 08:12:56;;;;;;;;;;;22.70;38.20;;;;;;476921;248;1078;-46
2021/11/17 08:14:57;;;;;;;;;;;22.50;38.40;;;;;;477006;248;1085;-46
2021/11/17 08:16:58;;;;;;;;;;;22.30;38.70;;;;;;476827;248;1227;-46
2021/11/17 08:19:00;;;;;;;;;;;22.20;39.10;;;;;;476955;248;1092;-46
2021/11/17 08:21:01;;;;;;;;;;;22.10;39.20;;;;;;476862;248;1337;-46
2021/11/17 08:23:02;;;;;;;;;;;22.00;39.40;;;;;;476980;248;1253;-47
2021/11/17 08:25:04;;;;;;;;;;;21.90;39.50;;;;;;476902;248;1141;-46
2021/11/17 08:27:05;;;;;;;;;;;21.90;39.60;;;;;;476885;248;1267;-46
2021/11/17 08:29:09;;;;;;;;;;;21.80;39.80;;;;;;476723;249;1254;-46
2021/11/17 08:31:13;;;;;;;;;;;21.80;39.00;;;;;;501713;233;1120;-48
2021/11/17 08:33:14;;;;;;;;;;;21.80;39.90;;;;;;491683;241;1041;-49
2021/11/17 08:35:16;;;;;;;;;;;21.70;39.90;;;;;;491327;240;1136;-48
2021/11/17 08:37:17;;;;;;;;;;;21.70;39.90;;;;;;491371;240;1005;-48
2021/11/17 08:39:18;;;;;;;;;;;21.70;39.90;;;;;;491201;240;873;-48
2021/11/17 08:41:20;;;;;;;;;;;21.70;39.90;;;;;;491148;240;1321;-49
2021/11/17 08:43:21;;;;;;;;;;;21.70;40.00;;;;;;491087;240;1070;-48
2021/11/17 08:45:22;;;;;;;;;;;21.60;40.00;;;;;;491111;240;1254;-49
2021/11/17 08:47:24;;;;;;;;;;;21.70;40.00;;;;;;490671;240;1702;-46
2021/11/17 08:49:25;;;;;;;;;;;21.70;40.00;;;;;;490324;240;2097;-46
2021/11/17 08:51:30;;;;;;;;;;;21.60;40.00;;;;;;491098;240;1696;-45
2021/11/17 08:53:29;;;;;;;;;;;21.60;40.00;;;;;;490933;240;1301;-46
2021/11/17 08:55:29;;;;;;;;;;;21.60;39.90;;;;;;490757;240;2005;-46
2021/11/17 08:57:30;;;;;;;;;;;21.70;39.80;;;;;;491000;240;1157;-46
2021/11/17 08:59:32;;;;;;;;;;;21.70;39.70;;;;;;491519;240;1457;-46
2021/11/17 09:01:33;;;;;;;;;;;21.80;39.70;;;;;;491185;240;1256;-45
2021/11/17 09:03:34;;;;;;;;;;;21.80;39.60;;;;;;491311;240;1069;-46
2021/11/17 09:05:36;;;;;;;;;;;21.80;39.60;;;;;;490935;240;1205;-46
2021/11/17 09:07:37;;;;;;;;;;;21.80;39.60;;;;;;490513;240;1314;-46
2021/11/17 09:09:38;;;;;;;;;;;21.80;39.50;;;;;;490603;240;2187;-46
2021/11/17 09:11:41;;;;;;;;;;;21.80;39.60;;;;;;490762;240;1308;-46
2021/11/17 09:13:42;;;;;;;;;;;21.70;39.50;;;;;;490837;240;1207;-46
2021/11/17 09:15:43;;;;;;;;;;;21.80;39.60;;;;;;490796;240;1202;-46
2021/11/17 09:17:44;;;;;;;;;;;21.70;39.60;;;;;;490867;240;1222;-45
2021/11/17 09:19:46;;;;;;;;;;;21.70;39.50;;;;;;490812;240;1252;-46
2021/11/17 09:21:47;;;;;;;;;;;21.70;39.60;;;;;;490856;240;1379;-46
2021/11/17 09:23:49;;;;;;;;;;;21.70;39.60;;;;;;490994;240;1178;-46
2021/11/17 09:25:50;;;;;;;;;;;21.70;39.60;;;;;;490861;240;2125;-46
2021/11/17 09:27:51;;;;;;;;;;;21.70;39.60;;;;;;490837;240;1136;-46
2021/11/17 09:29:52;;;;;;;;;;;21.70;39.60;;;;;;490898;240;2194;-46
2021/11/17 09:31:54;;;;;;;;;;;21.70;39.60;;;;;;490880;240;1304;-46
2021/11/17 09:33:55;;;;;;;;;;;21.70;39.60;;;;;;490847;240;2214;-46
2021/11/17 09:35:56;;;;;;;;;;;21.70;39.60;;;;;;490864;240;1207;-46
2021/11/17 09:37:57;;;;;;;;;;;21.70;39.60;;;;;;491016;240;994;-46
2021/11/17 09:39:59;;;;;;;;;;;21.60;39.60;;;;;;490583;240;1124;-46
2021/11/17 09:42:00;;;;;;;;;;;21.60;39.60;;;;;;490594;240;1329;-45
2021/11/17 09:44:01;;;;;;;;;;;21.60;39.60;;;;;;490648;240;1055;-46
2021/11/17 09:46:03;;;;;;;;;;;21.60;39.80;;;;;;490473;240;1282;-46
2021/11/17 09:48:04;;;;;;;;;;;21.50;39.80;;;;;;490680;241;1312;-46
2021/11/17 09:50:05;;;;;;;;;;;21.50;39.80;;;;;;490546;240;2192;-46
2021/11/17 09:52:07;;;;;;;;;;;21.50;39.80;;;;;;490883;240;1281;-45
2021/11/17 09:54:08;;;;;;;;;;;21.40;39.90;;;;;;490507;241;1284;-46
2021/11/17 09:56:11;;;;;;;;;;;21.40;40.00;;;;;;490503;243;1338;-46
2021/11/17 09:58:11;;;;;;;;;;;21.40;40.00;;;;;;490965;240;2161;-45
2021/11/17 10:00:12;;;;;;;;;;;21.40;39.90;;;;;;490708;240;1167;-46
2021/11/17 10:02:14;;;;;;;;;;;21.40;39.90;;;;;;490691;240;1290;-45
2021/11/17 10:04:15;;;;;;;;;;;21.40;40.00;;;;;;490721;240;1059;-45
2021/11/17 10:09:12;;;;;;;;;;;21.40;40.00;;;;;;490872;240;1048;-45
2021/11/17 10:13:09;;;;;;;;;;;21.30;40.10;;;;;;487009;241;1230;-46
2021/11/17 10:15:11;;;;;;;;;;;21.30;40.10;;;;;;490641;240;2205;-46
2021/11/17 10:17:09;;;;;;;;;;;21.30;40.10;;;;;;490630;240;2491;-46
2021/11/17 10:19:11;;;;;;;;;;;21.30;40.20;;;;;;490827;240;1178;-46
2021/11/17 10:21:12;;;;;;;;;;;21.30;40.20;;;;;;490696;240;1185;-45
2021/11/17 10:23:16;;;;;;;;;;;21.20;40.10;;;;;;490634;240;1051;-46
2021/11/17 10:25:17;;;;;;;;;;;21.20;40.20;;;;;;490080;240;1112;-46
2021/11/17 10:27:19;;;;;;;;;;;21.20;40.20;;;;;;490411;240;1233;-46
2021/11/17 10:29:20;;;;;;;;;;;21.20;40.10;;;;;;490213;240;1221;-46
2021/11/17 10:31:21;;;;;;;;;;;21.20;40.10;;;;;;490344;240;2110;-46
2021/11/17 10:33:23;;;;;;;;;;;21.20;40.10;;;;;;491419;240;825;-46
2021/11/17 10:35:24;;;;;;;;;;;21.20;40.10;;;;;;491386;240;838;-45
2021/11/17 10:37:25;;;;;;;;;;;21.20;40.20;;;;;;490876;240;1869;-46
2021/11/17 10:39:26;;;;;;;;;;;21.20;40.20;;;;;;491448;240;862;-45
2021/11/17 10:41:28;;;;;;;;;;;21.10;40.20;;;;;;490918;238;1210;-46
2021/11/17 10:43:29;;;;;;;;;;;21.10;40.30;;;;;;491206;240;1047;-46
2021/11/17 10:45:30;;;;;;;;;;;21.10;40.20;;;;;;490653;240;1061;-46
2021/11/17 10:47:32;;;;;;;;;;;21.20;40.20;;;;;;490677;241;1279;-46
2021/11/17 10:49:35;;;;;;;;;;;21.20;40.00;;;;;;490741;241;1139;-45
2021/11/17 10:51:35;;;;;;;;;;;21.30;40.00;;;;;;490394;240;2183;-46
2021/11/17 10:53:36;;;;;;;;;;;21.30;39.80;;;;;;490755;240;1140;-45
2021/11/17 10:55:38;;;;;;;;;;;21.40;39.80;;;;;;490860;241;1230;-46
2021/11/17 10:57:39;;;;;;;;;;;21.40;39.80;;;;;;490596;240;1141;-46
2021/11/17 10:59:40;;;;;;;;;;;21.40;39.90;;;;;;490705;240;1194;-46
2021/11/17 11:01:41;;;;;;;;;;;21.40;39.80;;;;;;490794;240;1171;-46
2021/11/17 11:03:43;;;;;;;;;;;21.40;39.80;;;;;;491626;240;820;-46
2021/11/17 11:05:44;;;;;;;;;;;21.40;39.90;;;;;;491537;240;1159;-47
2021/11/17 11:07:46;;;;;;;;;;;21.40;39.80;;;;;;491224;241;1530;-47
2021/11/17 11:09:47;;;;;;;;;;;21.40;39.80;;;;;;490799;241;1229;-46
2021/11/17 11:11:48;;;;;;;;;;;21.40;39.70;;;;;;490582;240;2184;-46
2021/11/17 11:13:50;;;;;;;;;;;21.50;39.80;;;;;;490512;241;1284;-46
2021/11/17 11:15:51;;;;;;;;;;;21.50;39.80;;;;;;490260;240;1998;-46
2021/11/17 11:17:52;;;;;;;;;;;21.40;39.80;;;;;;490395;240;1206;-46
2021/11/17 11:19:54;;;;;;;;;;;21.40;39.90;;;;;;490596;240;1068;-46
2021/11/17 11:21:55;;;;;;;;;;;21.40;39.90;;;;;;490650;240;1332;-46
2021/11/17 11:23:57;;;;;;;;;;;21.40;39.90;;;;;;490654;240;1072;-46
2021/11/17 11:25:58;;;;;;;;;;;21.40;39.90;;;;;;490523;241;1213;-46
2021/11/17 11:27:59;;;;;;;;;;;21.40;39.80;;;;;;490564;240;1072;-47
2021/11/17 11:30:00;;;;;;;;;;;21.40;39.80;;;;;;490657;240;1136;-46
2021/11/17 11:32:02;;;;;;;;;;;21.40;39.80;;;;;;490594;241;2180;-46
2021/11/17 11:34:03;;;;;;;;;;;21.40;39.80;;;;;;490964;241;1052;-46
2021/11/17 11:36:04;;;;;;;;;;;21.40;39.80;;;;;;490674;242;1169;-46
2021/11/17 11:38:06;;;;;;;;;;;21.40;39.70;;;;;;490730;241;1147;-46
2021/11/17 11:40:07;;;;;;;;;;;21.50;39.70;;;;;;490718;240;1070;-46
2021/11/17 11:42:08;;;;;;;;;;;21.50;39.70;;;;;;490680;240;1165;-47
2021/11/17 11:44:10;;;;;;;;;;;21.50;39.80;;;;;;490613;240;1204;-46
2021/11/17 11:46:11;;;;;;;;;;;21.40;39.70;;;;;;490765;240;1301;-46
2021/11/17 11:48:12;;;;;;;;;;;21.50;39.80;;;;;;491088;240;1112;-46
2021/11/17 11:50:14;;;;;;;;;;;21.50;39.70;;;;;;490780;240;1175;-46
2021/11/17 11:52:15;;;;;;;;;;;21.40;39.70;;;;;;490974;240;2195;-46
2021/11/17 11:54:17;;;;;;;;;;;21.50;39.80;;;;;;490620;240;1091;-46
2021/11/17 11:56:18;;;;;;;;;;;21.50;39.70;;;;;;490515;241;1332;-46
2021/11/17 11:58:20;;;;;;;;;;;21.50;39.80;;;;;;490607;240;1228;-46
2021/11/17 12:00:21;;;;;;;;;;;21.50;39.70;;;;;;490651;241;2788;-46
2021/11/17 12:02:23;;;;;;;;;;;21.50;39.70;;;;;;490629;240;1318;-46
2021/11/17 12:04:23;;;;;;;;;;;21.50;39.80;;;;;;490615;240;2226;-46
2021/11/17 12:06:25;;;;;;;;;;;21.50;39.70;;;;;;490581;240;1240;-46
2021/11/17 12:08:26;;;;;;;;;;;21.50;39.70;;;;;;490537;240;1234;-46
2021/11/17 12:10:27;;;;;;;;;;;21.50;39.70;;;;;;490757;240;2129;-46
2021/11/17 12:12:29;;;;;;;;;;;21.50;39.70;;;;;;490851;240;1349;-46
2021/11/17 12:14:30;;;;;;;;;;;21.50;39.70;;;;;;490707;240;1185;-46
2021/11/17 12:16:31;;;;;;;;;;;21.50;39.60;;;;;;490805;240;1327;-46
2021/11/17 12:18:33;;;;;;;;;;;21.50;39.50;;;;;;490720;240;1127;-46
2021/11/17 12:20:34;;;;;;;;;;;21.50;39.50;;;;;;490633;241;1495;-46
2021/11/17 12:22:35;;;;;;;;;;;21.50;39.60;;;;;;490877;240;1264;-46
2021/11/17 12:24:37;;;;;;;;;;;21.50;39.50;;;;;;490511;240;1050;-46
2021/11/17 12:26:38;;;;;;;;;;;21.50;39.50;;;;;;490353;240;1222;-46
2021/11/17 12:28:39;;;;;;;;;;;21.50;39.50;;;;;;490471;241;1142;-46
2021/11/17 12:30:41;;;;;;;;;;;21.50;39.50;;;;;;490532;240;2178;-46
2021/11/17 12:32:42;;;;;;;;;;;21.50;39.50;;;;;;490419;241;1181;-46
2021/11/17 12:34:43;;;;;;;;;;;21.50;39.50;;;;;;490347;240;1226;-46
2021/11/17 12:36:45;;;;;;;;;;;21.50;39.50;;;;;;490591;240;1327;-46
2021/11/17 12:38:46;;;;;;;;;;;21.50;39.50;;;;;;491108;240;1295;-46
2021/11/17 12:40:48;;;;;;;;;;;21.50;39.40;;;;;;490574;240;1189;-46
2021/11/17 12:42:49;;;;;;;;;;;21.50;39.40;;;;;;490625;240;1226;-46
2021/11/17 12:44:51;;;;;;;;;;;21.50;39.40;;;;;;490573;240;1054;-46
2021/11/17 12:46:52;;;;;;;;;;;21.50;39.40;;;;;;490502;241;1169;-46
2021/11/17 12:48:53;;;;;;;;;;;21.50;39.40;;;;;;490526;241;1254;-46
2021/11/17 12:50:55;;;;;;;;;;;21.50;39.30;;;;;;490312;240;2236;-46
2021/11/17 12:52:56;;;;;;;;;;;21.50;39.20;;;;;;491150;240;1236;-46
2021/11/17 12:54:57;;;;;;;;;;;21.60;39.10;;;;;;491099;240;892;-46
2021/11/17 12:56:58;;;;;;;;;;;21.60;39.00;;;;;;491177;240;1172;-47
2021/11/17 12:59:00;;;;;;;;;;;21.70;39.00;;;;;;490653;240;1236;-46
2021/11/17 13:01:01;;;;;;;;;;;21.70;39.00;;;;;;490491;240;1239;-46
2021/11/17 13:03:02;;;;;;;;;;;21.70;38.80;;;;;;490656;241;1144;-46
2021/11/17 13:05:04;;;;;;;;;;;21.80;38.90;;;;;;490423;241;1068;-46
2021/11/17 13:07:05;;;;;;;;;;;21.80;38.80;;;;;;490464;241;1432;-46
2021/11/17 13:09:06;;;;;;;;;;;21.80;38.70;;;;;;490560;241;1169;-46
2021/11/17 13:11:08;;;;;;;;;;;21.80;38.70;;;;;;490574;241;2180;-46
2021/11/17 13:13:09;;;;;;;;;;;21.80;38.70;;;;;;491435;240;1196;-46
2021/11/17 13:15:11;;;;;;;;;;;21.80;38.60;;;;;;490822;241;1249;-47
2021/11/17 13:17:12;;;;;;;;;;;21.80;38.60;;;;;;490726;240;1197;-47
2021/11/17 13:19:13;;;;;;;;;;;21.80;38.70;;;;;;490678;240;1144;-46
2021/11/17 13:21:15;;;;;;;;;;;21.70;38.80;;;;;;490577;240;1329;-46
2021/11/17 13:23:17;;;;;;;;;;;21.70;38.70;;;;;;491399;241;1205;-46
2021/11/17 13:25:20;;;;;;;;;;;21.70;38.80;;;;;;491448;240;1272;-46
2021/11/17 13:27:20;;;;;;;;;;;21.60;38.80;;;;;;491179;240;1883;-46
2021/11/17 13:29:21;;;;;;;;;;;21.60;38.90;;;;;;490899;240;1063;-46
2021/11/17 13:31:22;;;;;;;;;;;21.60;39.00;;;;;;490610;240;2192;-46
2021/11/17 13:33:24;;;;;;;;;;;21.50;39.00;;;;;;491188;240;1217;-46
2021/11/17 13:35:25;;;;;;;;;;;21.50;39.10;;;;;;491413;240;881;-46
2021/11/17 13:37:26;;;;;;;;;;;21.50;39.20;;;;;;491247;240;1099;-46
2021/11/17 13:39:27;;;;;;;;;;;21.50;39.20;;;;;;490927;240;1152;-46
2021/11/17 13:41:29;;;;;;;;;;;21.40;39.10;;;;;;491388;240;1164;-46
2021/11/17 13:43:30;;;;;;;;;;;21.50;39.20;;;;;;490908;240;1058;-46
2021/11/17 13:45:32;;;;;;;;;;;21.40;39.20;;;;;;490621;240;1051;-46
2021/11/17 13:47:33;;;;;;;;;;;21.40;39.30;;;;;;490984;240;1198;-46
2021/11/17 13:49:34;;;;;;;;;;;21.40;39.30;;;;;;490679;240;1196;-46
2021/11/17 13:51:36;;;;;;;;;;;21.30;39.40;;;;;;490631;240;2176;-46
2021/11/17 13:53:37;;;;;;;;;;;21.30;39.40;;;;;;490943;240;1159;-46
2021/11/17 13:55:38;;;;;;;;;;;21.30;39.50;;;;;;490738;240;1329;-46
2021/11/17 13:57:39;;;;;;;;;;;21.30;39.60;;;;;;490848;240;1153;-46
2021/11/17 13:59:41;;;;;;;;;;;21.30;39.50;;;;;;491422;240;861;-46
2021/11/17 14:01:42;;;;;;;;;;;21.20;39.50;;;;;;491271;240;1312;-46
2021/11/17 14:03:44;;;;;;;;;;;21.20;39.60;;;;;;491022;240;1186;-46
2021/11/17 14:05:46;;;;;;;;;;;21.20;39.70;;;;;;491474;240;1252;-46
2021/11/17 14:07:46;;;;;;;;;;;21.20;39.60;;;;;;491361;240;1959;-46
2021/11/17 14:09:48;;;;;;;;;;;21.20;39.70;;;;;;490897;240;1390;-46
2021/11/17 14:11:49;;;;;;;;;;;21.10;39.80;;;;;;490862;241;2116;-46
2021/11/17 14:13:50;;;;;;;;;;;21.10;39.80;;;;;;491550;240;856;-46
2021/11/17 14:15:51;;;;;;;;;;;21.10;39.80;;;;;;491453;241;1211;-46
2021/11/17 14:17:53;;;;;;;;;;;21.10;39.90;;;;;;491014;240;1025;-46
2021/11/17 14:19:55;;;;;;;;;;;21.00;39.80;;;;;;490716;241;1221;-47
2021/11/17 14:21:56;;;;;;;;;;;21.00;39.80;;;;;;490764;241;1491;-46
2021/11/17 14:23:57;;;;;;;;;;;21.10;39.80;;;;;;490685;240;2014;-46
2021/11/17 14:25:58;;;;;;;;;;;21.20;39.70;;;;;;490584;241;1356;-46
2021/11/17 14:27:59;;;;;;;;;;;21.20;39.70;;;;;;490864;240;1114;-47
2021/11/17 14:30:01;;;;;;;;;;;21.10;39.70;;;;;;490929;242;1039;-46